Time;durP1;ratioP1;P1;durP2;ratioP2;P2;SDS_P1;SDS_P2;PMS_P1;PMS_P2;Temp;Humidity;BMP_temperature;BMP_pressure;BME280_temperature;BME280_humidity;BME280_pressure;Samples;Min_cycle;Max_cycle;Signal;HPM_P1;HPM_P2
2021/07/10 00:00:43;;;;;;;10.63;9.63;;;;;;;;;;5063962;28;20935;-87
2021/07/10 00:03:10;;;;;;;11.13;9.93;;;;;;;;;;5071197;28;20457;-88
2021/07/10 00:05:37;;;;;;;10.18;9.27;;;;;;;;;;5087638;28;21070;-89
2021/07/10 00:08:04;;;;;;;10.35;9.30;;;;;;;;;;5087662;28;20446;-89
2021/07/10 00:10:31;;;;;;;10.23;9.13;;;;;;;;;;5087444;28;20933;-88
2021/07/10 00:12:58;;;;;;;10.82;9.82;;;;;;;;;;5087988;28;20408;-88
2021/07/10 00:15:26;;;;;;;10.20;9.30;;;;;;;;;;5077757;28;20408;-89
2021/07/10 00:17:54;;;;;;;10.48;9.52;;;;;;;;;;5087666;28;20806;-89
2021/07/10 00:20:22;;;;;;;10.95;9.88;;;;;;;;;;5087905;28;20400;-89
2021/07/10 00:22:50;;;;;;;13.27;11.38;;;;;;;;;;5087606;28;20908;-87
2021/07/10 00:25:18;;;;;;;12.50;11.25;;;;;;;;;;5087779;28;20424;-88
2021/07/10 00:27:46;;;;;;;14.05;12.65;;;;;;;;;;5087964;28;20396;-88
2021/07/10 00:30:17;;;;;;;17.43;13.60;;;;;;;;;;5063132;28;20777;-88
2021/07/10 00:32:44;;;;;;;14.55;13.00;;;;;;;;;;5066553;28;20932;-89
2021/07/10 00:35:13;;;;;;;14.00;12.77;;;;;;;;;;5065010;28;20951;-88
2021/07/10 00:37:40;;;;;;;15.13;13.73;;;;;;;;;;5068227;28;20523;-89
2021/07/10 00:40:09;;;;;;;15.40;13.80;;;;;;;;;;5067069;28;20402;-88
2021/07/10 00:42:37;;;;;;;14.70;13.30;;;;;;;;;;5067304;28;20394;-87
2021/07/10 00:45:07;;;;;;;15.10;13.60;;;;;;;;;;5066977;28;20856;-89
2021/07/10 00:47:34;;;;;;;15.25;13.80;;;;;;;;;;5067350;28;20398;-89
2021/07/10 00:50:01;;;;;;;15.73;14.18;;;;;;;;;;5067024;28;20489;-89
2021/07/10 00:52:30;;;;;;;15.30;13.80;;;;;;;;;;5066963;28;20521;-89
2021/07/10 00:54:57;;;;;;;15.77;13.43;;;;;;;;;;5067088;28;20735;-89
2021/07/10 00:57:24;;;;;;;15.40;13.73;;;;;;;;;;5066964;28;20878;-89
2021/07/10 00:59:51;;;;;;;14.75;13.35;;;;;;;;;;5066764;28;20433;-87
2021/07/10 01:02:18;;;;;;;14.90;13.50;;;;;;;;;;5066664;28;20806;-88
2021/07/10 01:04:45;;;;;;;13.98;12.77;;;;;;;;;;5062802;28;20409;-88
2021/07/10 01:07:11;;;;;;;14.52;13.05;;;;;;;;;;5066333;28;20401;-88
2021/07/10 01:09:40;;;;;;;13.65;12.52;;;;;;;;;;5066844;28;20429;-88
2021/07/10 01:12:07;;;;;;;13.93;12.60;;;;;;;;;;5066602;28;20456;-89
2021/07/10 01:14:34;;;;;;;13.32;12.10;;;;;;;;;;5066778;28;20869;-88
2021/07/10 01:17:01;;;;;;;13.77;12.50;;;;;;;;;;5066581;28;20571;-88
2021/07/10 01:19:28;;;;;;;13.00;11.68;;;;;;;;;;5066739;28;20961;-89
2021/07/10 01:21:57;;;;;;;12.88;11.73;;;;;;;;;;5066546;28;20774;-89
2021/07/10 01:24:24;;;;;;;12.93;11.57;;;;;;;;;;5066421;28;20440;-87
2021/07/10 01:26:51;;;;;;;11.90;10.80;;;;;;;;;;5065985;28;20939;-88
2021/07/10 01:29:18;;;;;;;11.57;10.43;;;;;;;;;;5066441;28;20398;-88
2021/07/10 01:31:47;;;;;;;10.87;9.97;;;;;;;;;;5062591;28;20405;-87
2021/07/10 01:34:13;;;;;;;10.45;9.43;;;;;;;;;;5065623;28;20441;-87
2021/07/10 01:36:41;;;;;;;10.30;9.30;;;;;;;;;;5066523;28;20812;-88
2021/07/10 01:39:09;;;;;;;9.98;9.00;;;;;;;;;;5065616;28;20401;-87
2021/07/10 01:41:43;;;;;;;10.13;9.13;;;;;;;;;;5065973;28;20429;-86
2021/07/10 01:44:11;;;;;;;10.15;9.35;;;;;;;;;;5065578;28;20812;-86
2021/07/10 01:46:38;;;;;;;10.43;8.20;;;;;;;;;;5065541;28;20425;-85
2021/07/10 01:49:05;;;;;;;8.55;7.85;;;;;;;;;;5065812;28;20402;-88
2021/07/10 01:51:31;;;;;;;8.68;7.80;;;;;;;;;;5065938;28;20410;-88
2021/07/10 01:53:58;;;;;;;8.65;7.95;;;;;;;;;;5065905;28;20464;-87
2021/07/10 01:56:26;;;;;;;8.27;7.47;;;;;;;;;;5065721;28;20483;-88
2021/07/10 01:58:54;;;;;;;8.50;7.75;;;;;;;;;;5065770;28;20401;-86
2021/07/10 02:01:21;;;;;;;9.05;8.15;;;;;;;;;;5068860;28;20943;-88
2021/07/10 02:03:48;;;;;;;8.90;8.10;;;;;;;;;;5078448;28;20400;-87
2021/07/10 02:06:15;;;;;;;9.43;7.40;;;;;;;;;;5074763;28;20417;-85
2021/07/10 02:08:42;;;;;;;8.10;7.38;;;;;;;;;;5078045;28;20404;-86
2021/07/10 02:11:08;;;;;;;7.90;7.20;;;;;;;;;;5074685;28;20402;-88
2021/07/10 02:13:37;;;;;;;8.43;7.70;;;;;;;;;;5077410;28;20812;-88
2021/07/10 02:16:04;;;;;;;9.00;7.40;;;;;;;;;;5075388;28;20408;-88
2021/07/10 02:18:31;;;;;;;8.27;7.47;;;;;;;;;;5076738;28;20890;-88
2021/07/10 02:20:58;;;;;;;8.18;7.38;;;;;;;;;;5076302;28;20408;-86
2021/07/10 02:23:25;;;;;;;8.40;7.60;;;;;;;;;;5075308;28;20405;-87
2021/07/10 02:25:52;;;;;;;8.00;7.20;;;;;;;;;;5077071;28;20420;-87
2021/07/10 02:28:19;;;;;;;7.88;7.10;;;;;;;;;;5074463;28;20397;-86
2021/07/10 02:30:47;;;;;;;7.60;6.90;;;;;;;;;;5077769;28;20945;-86
2021/07/10 02:33:15;;;;;;;7.95;7.18;;;;;;;;;;5069955;28;20410;-86
2021/07/10 02:35:42;;;;;;;7.82;7.13;;;;;;;;;;5077577;28;20401;-88
2021/07/10 02:38:09;;;;;;;8.55;7.57;;;;;;;;;;5074429;28;20400;-88
2021/07/10 02:40:36;;;;;;;8.32;7.63;;;;;;;;;;5076492;28;20935;-87
2021/07/10 02:43:04;;;;;;;8.73;7.82;;;;;;;;;;5075138;28;20507;-87
2021/07/10 02:45:31;;;;;;;8.43;7.57;;;;;;;;;;5057712;28;20753;-88
2021/07/10 02:47:59;;;;;;;8.57;7.78;;;;;;;;;;5055936;28;20402;-88
2021/07/10 02:50:27;;;;;;;8.43;7.57;;;;;;;;;;5055254;28;20411;-87
2021/07/10 02:52:54;;;;;;;9.40;8.40;;;;;;;;;;5056569;28;20402;-87
2021/07/10 02:55:22;;;;;;;9.32;8.48;;;;;;;;;;5054490;28;21115;-86
2021/07/10 02:57:49;;;;;;;9.30;8.50;;;;;;;;;;5057124;28;20458;-87
2021/07/10 03:00:19;;;;;;;9.40;8.40;;;;;;;;;;5053914;28;20434;-87
2021/07/10 03:02:46;;;;;;;9.63;8.73;;;;;;;;;;5056827;28;20398;-88
2021/07/10 03:05:15;;;;;;;10.20;8.70;;;;;;;;;;5070404;28;20899;-88
2021/07/10 03:07:42;;;;;;;10.00;8.98;;;;;;;;;;5077599;28;20393;-88
2021/07/10 03:10:12;;;;;;;11.90;9.23;;;;;;;;;;5076927;28;20409;-87
2021/07/10 03:12:39;;;;;;;10.38;9.38;;;;;;;;;;5058165;28;20785;-86
2021/07/10 03:15:08;;;;;;;10.02;9.02;;;;;;;;;;5054790;28;20409;-86
2021/07/10 03:17:35;;;;;;;9.87;8.87;;;;;;;;;;5056166;28;20399;-86
2021/07/10 03:20:02;;;;;;;10.05;9.13;;;;;;;;;;5055116;28;21011;-87
2021/07/10 03:22:30;;;;;;;11.30;9.00;;;;;;;;;;5055584;28;20392;-88
2021/07/10 03:24:57;;;;;;;9.77;8.80;;;;;;;;;;5057921;28;20455;-86
2021/07/10 03:27:23;;;;;;;10.23;8.40;;;;;;;;;;5058241;28;20477;-86
2021/07/10 03:29:50;;;;;;;8.77;7.97;;;;;;;;;;5060663;28;20417;-88
2021/07/10 03:32:17;;;;;;;8.70;7.90;;;;;;;;;;5057624;28;20404;-87
2021/07/10 03:34:44;;;;;;;8.10;7.35;;;;;;;;;;5059404;28;20463;-87
2021/07/10 03:37:11;;;;;;;7.72;6.93;;;;;;;;;;5057219;28;20771;-86
2021/07/10 03:39:39;;;;;;;7.72;6.93;;;;;;;;;;5059922;28;20399;-88
2021/07/10 03:42:06;;;;;;;7.68;6.97;;;;;;;;;;5058177;28;20398;-87
2021/07/10 03:44:33;;;;;;;7.72;6.88;;;;;;;;;;5066309;28;20411;-87
2021/07/10 03:47:00;;;;;;;7.60;6.80;;;;;;;;;;5078793;28;20420;-86
2021/07/10 03:49:27;;;;;;;7.47;6.85;;;;;;;;;;5078306;28;20447;-88
2021/07/10 03:51:54;;;;;;;7.97;7.15;;;;;;;;;;5079459;28;20445;-87
2021/07/10 03:54:21;;;;;;;7.60;6.85;;;;;;;;;;5077720;28;20400;-88
2021/07/10 03:56:49;;;;;;;7.63;6.60;;;;;;;;;;5080701;28;21313;-86
2021/07/10 03:59:16;;;;;;;10.18;6.55;;;;;;;;;;5073159;28;20402;-86
2021/07/10 04:01:45;;;;;;;7.90;6.40;;;;;;;;;;5080489;28;20397;-86
2021/07/10 04:04:12;;;;;;;6.47;5.87;;;;;;;;;;5067808;28;20529;-87
2021/07/10 04:06:39;;;;;;;7.10;6.50;;;;;;;;;;5071234;28;20424;-86
2021/07/10 04:09:06;;;;;;;7.22;6.45;;;;;;;;;;5070907;28;20411;-87
2021/07/10 04:11:33;;;;;;;7.57;6.38;;;;;;;;;;5061632;28;20400;-87
2021/07/10 04:14:01;;;;;;;7.05;6.25;;;;;;;;;;5060367;28;20404;-86
2021/07/10 04:16:28;;;;;;;6.88;6.20;;;;;;;;;;5061455;28;20462;-87
2021/07/10 04:18:55;;;;;;;7.57;6.30;;;;;;;;;;5054765;28;20402;-88
2021/07/10 04:21:22;;;;;;;7.60;6.60;;;;;;;;;;5060905;28;20830;-86
2021/07/10 04:23:49;;;;;;;7.63;6.45;;;;;;;;;;5060496;28;20944;-86
2021/07/10 04:26:16;;;;;;;8.70;6.97;;;;;;;;;;5060825;28;20422;-87
2021/07/10 04:28:42;;;;;;;7.60;6.90;;;;;;;;;;5061281;28;20824;-87
2021/07/10 04:31:11;;;;;;;7.10;6.30;;;;;;;;;;5061356;28;20493;-87
2021/07/10 04:33:38;;;;;;;7.75;6.65;;;;;;;;;;5061232;28;20458;-87
2021/07/10 04:36:05;;;;;;;7.38;6.57;;;;;;;;;;5059534;28;20404;-86
2021/07/10 04:38:32;;;;;;;7.30;6.60;;;;;;;;;;5061072;28;20403;-87
2021/07/10 04:40:59;;;;;;;9.73;7.20;;;;;;;;;;5060183;28;20825;-87
2021/07/10 04:43:26;;;;;;;8.83;8.03;;;;;;;;;;5056696;28;20555;-85
2021/07/10 04:45:52;;;;;;;8.00;7.18;;;;;;;;;;5079846;28;20904;-87
2021/07/10 04:48:21;;;;;;;9.40;7.72;;;;;;;;;;5080869;28;20403;-88
2021/07/10 04:50:47;;;;;;;8.67;7.87;;;;;;;;;;5080646;28;20408;-87
2021/07/10 04:53:14;;;;;;;8.47;7.77;;;;;;;;;;5065253;28;20400;-88
2021/07/10 04:55:42;;;;;;;8.80;7.70;;;;;;;;;;5081571;28;20445;-86
2021/07/10 04:58:08;;;;;;;8.55;7.70;;;;;;;;;;5081391;28;20409;-85
2021/07/10 05:00:35;;;;;;;8.73;7.85;;;;;;;;;;5079731;28;20463;-87
2021/07/10 05:03:02;;;;;;;8.20;7.40;;;;;;;;;;5080481;28;20460;-89
2021/07/10 05:05:31;;;;;;;8.63;7.35;;;;;;;;;;5080446;28;20401;-86
2021/07/10 05:07:59;;;;;;;7.90;7.10;;;;;;;;;;5080116;28;20786;-87
2021/07/10 05:10:26;;;;;;;7.80;7.10;;;;;;;;;;5080612;28;20396;-87
2021/07/10 05:12:53;;;;;;;8.25;7.38;;;;;;;;;;5080414;28;20406;-88
2021/07/10 05:15:20;;;;;;;7.95;7.22;;;;;;;;;;5080587;28;20408;-88
2021/07/10 05:17:47;;;;;;;8.17;6.97;;;;;;;;;;5080663;28;20461;-87
2021/07/10 05:20:15;;;;;;;8.73;7.65;;;;;;;;;;5058839;28;20398;-86
2021/07/10 05:22:44;;;;;;;8.20;7.50;;;;;;;;;;5061171;28;20406;-87
2021/07/10 05:25:12;;;;;;;8.82;7.18;;;;;;;;;;5060568;28;20475;-87
2021/07/10 05:27:39;;;;;;;7.93;6.82;;;;;;;;;;5061092;28;20507;-88
2021/07/10 05:30:08;;;;;;;7.95;7.10;;;;;;;;;;5059326;28;20954;-88
2021/07/10 05:32:35;;;;;;;7.78;6.97;;;;;;;;;;5059691;28;20438;-87
2021/07/10 05:35:02;;;;;;;8.45;6.72;;;;;;;;;;5074399;22;20448;-90
2021/07/10 05:37:29;;;;;;;7.53;6.82;;;;;;;;;;5077023;28;20421;-88
2021/07/10 05:39:57;;;;;;;7.95;7.15;;;;;;;;;;5076458;28;20400;-90
2021/07/10 05:42:24;;;;;;;7.80;6.95;;;;;;;;;;5092858;28;20408;-90
2021/07/10 05:44:51;;;;;;;7.63;6.72;;;;;;;;;;5080732;28;20403;-87
2021/07/10 05:47:18;;;;;;;8.23;6.90;;;;;;;;;;5099539;28;20414;-89
2021/07/10 05:49:44;;;;;;;7.35;6.53;;;;;;;;;;5081896;28;20798;-89
2021/07/10 05:52:11;;;;;;;8.00;6.20;;;;;;;;;;5082802;28;20856;-89
2021/07/10 05:54:38;;;;;;;9.32;6.20;;;;;;;;;;5081278;28;20401;-89
2021/07/10 05:57:07;;;;;;;8.30;5.85;;;;;;;;;;5082709;28;20398;-86
2021/07/10 05:59:34;;;;;;;7.47;5.95;;;;;;;;;;5081621;28;20402;-87
2021/07/10 06:02:06;;;;;;;8.43;6.18;;;;;;;;;;5081454;28;20448;-89
2021/07/10 06:04:33;;;;;;;8.05;6.00;;;;;;;;;;5081812;28;20405;-88
2021/07/10 06:07:00;;;;;;;8.13;6.43;;;;;;;;;;5094079;28;20899;-91
2021/07/10 06:09:27;;;;;;;6.80;5.82;;;;;;;;;;5102551;28;20409;-91
2021/07/10 06:11:54;;;;;;;6.60;5.55;;;;;;;;;;5086717;28;20404;-91
2021/07/10 06:14:22;;;;;;;6.10;5.50;;;;;;;;;;5077144;28;20409;-91
2021/07/10 06:16:49;;;;;;;7.00;5.40;;;;;;;;;;5081851;28;20461;-89
2021/07/10 06:19:16;;;;;;;6.40;5.40;;;;;;;;;;5080106;28;20817;-89
2021/07/10 06:21:43;;;;;;;6.03;5.53;;;;;;;;;;5085762;28;20404;-89
2021/07/10 06:24:10;;;;;;;6.90;5.50;;;;;;;;;;5082551;28;20895;-89
2021/07/10 06:26:37;;;;;;;7.63;5.80;;;;;;;;;;5081842;28;20414;-91
2021/07/10 06:29:05;;;;;;;6.75;5.43;;;;;;;;;;5081774;28;20597;-88
2021/07/10 06:31:34;;;;;;;5.93;5.28;;;;;;;;;;5087357;28;20408;-92
2021/07/10 06:34:01;;;;;;;6.15;5.03;;;;;;;;;;5084569;28;20828;-91
2021/07/10 06:36:29;;;;;;;4.50;4.10;;;;;;;;;;5081884;28;20400;-90
2021/07/10 06:38:56;;;;;;;6.00;4.20;;;;;;;;;;5081682;28;20407;-89
2021/07/10 06:41:23;;;;;;;5.30;3.60;;;;;;;;;;5073076;28;20426;-91
2021/07/10 06:43:50;;;;;;;3.50;3.20;;;;;;;;;;5093618;28;20400;-89
2021/07/10 06:46:17;;;;;;;4.72;3.20;;;;;;;;;;5077408;28;20404;-89
2021/07/10 06:48:45;;;;;;;3.45;2.90;;;;;;;;;;5087617;28;20403;-91
2021/07/10 06:51:12;;;;;;;3.50;2.92;;;;;;;;;;5096221;28;20406;-89
2021/07/10 06:53:39;;;;;;;6.82;3.70;;;;;;;;;;5102429;28;20941;-89
2021/07/10 06:56:06;;;;;;;2.90;2.60;;;;;;;;;;5101814;28;20398;-90
2021/07/10 06:58:33;;;;;;;3.05;2.40;;;;;;;;;;5096156;28;20411;-90
2021/07/10 07:01:00;;;;;;;2.50;2.30;;;;;;;;;;5089921;28;20413;-90
2021/07/10 07:03:27;;;;;;;2.35;2.15;;;;;;;;;;5106486;28;20422;-90
2021/07/10 07:05:55;;;;;;;3.08;2.10;;;;;;;;;;5103018;28;20411;-91
2021/07/10 07:08:22;;;;;;;3.10;2.10;;;;;;;;;;5083294;28;20440;-91
2021/07/10 07:10:49;;;;;;;2.72;1.90;;;;;;;;;;5101228;28;20876;-89
2021/07/10 07:13:16;;;;;;;3.72;2.20;;;;;;;;;;5089690;28;20400;-90
2021/07/10 07:15:43;;;;;;;2.30;2.20;;;;;;;;;;5096639;28;20421;-90
2021/07/10 07:18:11;;;;;;;2.58;2.35;;;;;;;;;;5092243;28;20775;-91
2021/07/10 07:20:38;;;;;;;2.30;2.10;;;;;;;;;;5082663;28;20412;-91
2021/07/10 07:23:06;;;;;;;3.97;2.30;;;;;;;;;;5100564;28;20511;-90
2021/07/10 07:25:34;;;;;;;3.15;2.35;;;;;;;;;;5090442;28;20409;-90
2021/07/10 07:28:02;;;;;;;2.47;2.28;;;;;;;;;;5085656;28;20953;-89
2021/07/10 07:30:29;;;;;;;3.08;2.15;;;;;;;;;;5086249;28;20571;-92
2021/07/10 07:32:56;;;;;;;2.20;2.00;;;;;;;;;;5085311;28;20412;-91
2021/07/10 07:35:23;;;;;;;2.50;2.30;;;;;;;;;;5085349;28;20431;-91
2021/07/10 07:37:50;;;;;;;2.45;2.08;;;;;;;;;;5085468;28;20837;-92
2021/07/10 07:40:19;;;;;;;2.75;2.05;;;;;;;;;;5086055;28;20871;-89
2021/07/10 07:42:48;;;;;;;3.58;2.30;;;;;;;;;;5086432;28;20408;-91
2021/07/10 07:45:17;;;;;;;2.30;2.10;;;;;;;;;;5079113;28;20408;-93
2021/07/10 07:47:44;;;;;;;3.35;2.00;;;;;;;;;;5093034;28;20414;-93
2021/07/10 07:50:14;;;;;;;3.00;2.03;;;;;;;;;;5099720;28;20408;-92
2021/07/10 07:52:41;;;;;;;2.60;2.03;;;;;;;;;;5104988;28;20486;-91
2021/07/10 07:55:10;;;;;;;3.55;2.20;;;;;;;;;;5083390;28;20414;-91
2021/07/10 07:57:39;;;;;;;2.50;1.70;;;;;;;;;;5085045;28;20405;-91
2021/07/10 08:00:09;;;;;;;1.90;1.70;;;;;;;;;;5089795;28;20756;-92
2021/07/10 08:02:36;;;;;;;2.90;1.80;;;;;;;;;;5087882;28;20406;-91
2021/07/10 08:05:04;;;;;;;2.05;1.50;;;;;;;;;;5085097;28;20774;-90
2021/07/10 08:07:31;;;;;;;2.63;1.63;;;;;;;;;;5093447;28;20411;-91
2021/07/10 08:09:58;;;;;;;2.03;1.55;;;;;;;;;;5094972;28;20404;-91
2021/07/10 08:12:25;;;;;;;2.10;1.90;;;;;;;;;;5083325;28;20412;-90
2021/07/10 08:14:54;;;;;;;2.90;1.80;;;;;;;;;;5085829;28;20408;-91
2021/07/10 08:17:21;;;;;;;1.70;1.60;;;;;;;;;;5097121;28;20483;-92
2021/07/10 08:19:48;;;;;;;3.73;1.80;;;;;;;;;;5105837;28;20402;-91
2021/07/10 08:22:15;;;;;;;3.13;1.98;;;;;;;;;;5089306;28;20501;-89
2021/07/10 08:24:42;;;;;;;2.65;1.70;;;;;;;;;;5086742;28;20426;-89
2021/07/10 08:27:09;;;;;;;1.85;1.70;;;;;;;;;;5098426;28;20416;-90
2021/07/10 08:29:36;;;;;;;1.70;1.60;;;;;;;;;;5105602;28;20404;-91
2021/07/10 08:32:05;;;;;;;2.20;1.80;;;;;;;;;;5105783;28;20422;-91
2021/07/10 08:34:32;;;;;;;3.80;1.80;;;;;;;;;;5105433;28;20402;-89
2021/07/10 08:37:00;;;;;;;2.50;1.90;;;;;;;;;;5058451;28;20400;-92
2021/07/10 08:39:27;;;;;;;2.60;1.83;;;;;;;;;;5049334;28;20417;-92
2021/07/10 08:41:54;;;;;;;2.92;1.95;;;;;;;;;;5044895;28;20903;-89
2021/07/10 08:44:21;;;;;;;3.60;1.70;;;;;;;;;;5044623;28;20403;-89
2021/07/10 08:46:49;;;;;;;4.90;1.80;;;;;;;;;;5067705;28;20416;-90
2021/07/10 08:49:19;;;;;;;4.10;1.63;;;;;;;;;;5066066;28;20397;-90
2021/07/10 08:51:48;;;;;;;2.13;1.67;;;;;;;;;;5066155;28;20406;-91
2021/07/10 08:54:16;;;;;;;2.63;1.55;;;;;;;;;;5068976;28;20409;-90
2021/07/10 08:56:43;;;;;;;1.75;1.65;;;;;;;;;;5069145;28;20402;-93
2021/07/10 08:59:11;;;;;;;2.27;1.60;;;;;;;;;;5068850;28;20429;-91
2021/07/10 09:01:38;;;;;;;3.65;1.63;;;;;;;;;;5069110;28;20898;-91
2021/07/10 09:04:06;;;;;;;3.47;1.67;;;;;;;;;;5068182;28;20405;-91
2021/07/10 09:06:34;;;;;;;3.83;1.70;;;;;;;;;;5069019;28;20799;-90
2021/07/10 09:09:03;;;;;;;4.00;1.80;;;;;;;;;;5068487;28;20414;-92
2021/07/10 09:11:31;;;;;;;3.83;1.50;;;;;;;;;;5069840;28;20485;-92
2021/07/10 09:13:58;;;;;;;3.47;1.70;;;;;;;;;;5068326;28;20406;-93
2021/07/10 09:16:26;;;;;;;2.13;1.60;;;;;;;;;;5068476;28;20418;-92
2021/07/10 09:18:55;;;;;;;3.78;1.60;;;;;;;;;;5067919;28;20410;-91
2021/07/10 09:21:39;;;;;;;2.00;1.50;;;;;;;;;;5068292;28;20410;-89
2021/07/10 09:24:08;;;;;;;1.90;1.70;;;;;;;;;;5068008;28;20446;-92
2021/07/10 09:26:40;;;;;;;2.83;1.80;;;;;;;;;;5068379;28;20402;-90
2021/07/10 09:29:10;;;;;;;2.28;1.80;;;;;;;;;;5067715;28;20413;-91
2021/07/10 09:31:39;;;;;;;2.70;1.70;;;;;;;;;;5068341;28;20916;-90
2021/07/10 09:34:09;;;;;;;4.10;1.80;;;;;;;;;;5067766;28;20410;-91
2021/07/10 09:36:49;;;;;;;2.53;1.70;;;;;;;;;;5095040;28;20421;-92
2021/07/10 09:39:17;;;;;;;2.88;1.60;;;;;;;;;;5085367;28;20594;-92
2021/07/10 09:41:44;;;;;;;3.00;1.90;;;;;;;;;;5085049;28;20404;-92
2021/07/10 09:44:14;;;;;;;2.35;1.80;;;;;;;;;;5088117;28;20888;-91
2021/07/10 09:46:41;;;;;;;3.58;1.70;;;;;;;;;;5097963;28;20400;-91
2021/07/10 09:49:30;;;;;;;4.95;2.00;;;;;;;;;;5103877;28;20431;-90
2021/07/10 09:52:04;;;;;;;3.63;1.70;;;;;;;;;;5104148;28;20472;-89
2021/07/10 09:54:33;;;;;;;1.98;1.63;;;;;;;;;;5104777;28;20406;-91
2021/07/10 09:57:06;;;;;;;3.35;1.90;;;;;;;;;;5104325;28;20399;-92
2021/07/10 09:59:36;;;;;;;2.47;1.60;;;;;;;;;;5104675;28;20403;-91
2021/07/10 10:02:10;;;;;;;3.65;1.80;;;;;;;;;;5101860;28;20497;-91
2021/07/10 10:04:38;;;;;;;2.38;1.60;;;;;;;;;;5104531;28;20622;-91
2021/07/10 10:07:11;;;;;;;4.10;1.50;;;;;;;;;;5095191;28;20415;-92
2021/07/10 10:09:38;;;;;;;2.28;1.80;;;;;;;;;;5088288;28;20749;-90
2021/07/10 10:12:08;;;;;;;1.73;1.63;;;;;;;;;;5100702;28;20398;-91
2021/07/10 10:14:41;;;;;;;1.83;1.73;;;;;;;;;;5104968;28;20408;-91
2021/07/10 10:17:09;;;;;;;2.58;1.70;;;;;;;;;;5095247;28;20418;-89
2021/07/10 10:19:36;;;;;;;2.42;1.90;;;;;;;;;;5102871;28;20747;-91
2021/07/10 10:22:07;;;;;;;2.17;1.70;;;;;;;;;;5087897;28;20404;-91
2021/07/10 10:24:36;;;;;;;3.43;1.77;;;;;;;;;;5100635;28;20419;-91
2021/07/10 10:27:04;;;;;;;2.08;1.77;;;;;;;;;;5104426;28;20407;-92
2021/07/10 10:29:33;;;;;;;2.78;1.80;;;;;;;;;;5093170;28;20412;-89
2021/07/10 10:32:01;;;;;;;2.60;1.90;;;;;;;;;;5091228;28;20406;-92
2021/07/10 10:34:28;;;;;;;2.90;1.77;;;;;;;;;;5087487;28;20756;-90
2021/07/10 10:36:58;;;;;;;3.55;1.75;;;;;;;;;;5077785;28;20421;-91
2021/07/10 10:39:28;;;;;;;3.90;1.63;;;;;;;;;;5081293;28;20406;-91
2021/07/10 10:41:58;;;;;;;2.55;1.80;;;;;;;;;;5079157;28;20419;-91
2021/07/10 10:44:34;;;;;;;4.93;2.00;;;;;;;;;;5086619;28;20408;-90
2021/07/10 10:47:01;;;;;;;1.87;1.67;;;;;;;;;;5076999;28;20410;-91
2021/07/10 10:49:34;;;;;;;3.55;1.75;;;;;;;;;;5087502;28;20891;-90
2021/07/10 10:52:32;;;;;;;3.45;1.90;;;;;;;;;;5087034;28;20422;-92
2021/07/10 10:55:07;;;;;;;2.10;1.80;;;;;;;;;;5081139;28;20496;-90
2021/07/10 10:57:37;;;;;;;3.10;1.80;;;;;;;;;;5083323;28;20402;-91
2021/07/10 11:00:09;;;;;;;2.85;1.70;;;;;;;;;;5087128;28;20408;-92
2021/07/10 11:02:43;;;;;;;1.70;1.58;;;;;;;;;;5080447;28;20465;-89
2021/07/10 11:05:10;;;;;;;3.72;2.08;;;;;;;;;;5083535;28;20402;-91
2021/07/10 11:07:38;;;;;;;2.07;1.83;;;;;;;;;;5083178;28;20407;-90
2021/07/10 11:10:14;;;;;;;2.83;1.75;;;;;;;;;;5083249;28;21079;-91
2021/07/10 11:13:05;;;;;;;2.65;1.83;;;;;;;;;;5087563;28;20404;-91
2021/07/10 11:15:43;;;;;;;2.00;1.70;;;;;;;;;;5064542;28;20400;-90
2021/07/10 11:18:26;;;;;;;3.63;1.85;;;;;;;;;;5086816;28;20412;-90
2021/07/10 11:20:53;;;;;;;4.05;1.95;;;;;;;;;;5082874;28;20400;-91
2021/07/10 11:23:31;;;;;;;2.40;1.80;;;;;;;;;;5087526;28;20912;-92
2021/07/10 11:26:08;;;;;;;2.97;1.85;;;;;;;;;;5086331;28;20734;-91
2021/07/10 11:28:52;;;;;;;2.77;1.87;;;;;;;;;;5079604;28;20422;-91
2021/07/10 11:31:24;;;;;;;2.85;1.90;;;;;;;;;;5082736;28;20414;-90
2021/07/10 11:34:09;;;;;;;2.30;1.70;;;;;;;;;;5087402;28;20410;-93
2021/07/10 11:36:48;;;;;;;2.78;1.85;;;;;;;;;;5086732;28;20419;-91
2021/07/10 11:39:55;;;;;;;3.42;1.95;;;;;;;;;;5082461;28;20774;-91
2021/07/10 11:42:51;;;;;;;2.90;1.93;;;;;;;;;;5086186;28;20404;-90
2021/07/10 11:45:24;;;;;;;4.65;2.10;;;;;;;;;;5081324;28;20404;-92
2021/07/10 11:47:53;;;;;;;1.70;1.60;;;;;;;;;;5078262;28;20440;-92
2021/07/10 11:50:23;;;;;;;3.67;1.80;;;;;;;;;;5090490;28;20912;-90
2021/07/10 11:52:58;;;;;;;2.25;1.80;;;;;;;;;;5090342;28;20400;-89
2021/07/10 11:55:26;;;;;;;2.00;1.80;;;;;;;;;;5090235;28;20507;-92
2021/07/10 11:57:55;;;;;;;2.43;1.90;;;;;;;;;;5086446;28;20419;-92
2021/07/10 12:00:25;;;;;;;2.75;2.00;;;;;;;;;;5086278;28;20412;-92
2021/07/10 12:02:52;;;;;;;2.28;1.90;;;;;;;;;;5089872;28;20404;-91
2021/07/10 12:05:20;;;;;;;7.15;2.20;;;;;;;;;;5083085;28;20411;-90
2021/07/10 12:07:49;;;;;;;2.15;1.98;;;;;;;;;;5083277;28;20400;-92
2021/07/10 12:10:18;;;;;;;5.90;2.17;;;;;;;;;;5083407;28;20417;-92
2021/07/10 12:12:47;;;;;;;2.47;2.17;;;;;;;;;;5083343;28;20416;-92
2021/07/10 12:15:17;;;;;;;2.28;1.90;;;;;;;;;;5086065;28;20412;-92
2021/07/10 12:17:46;;;;;;;2.20;2.00;;;;;;;;;;5090510;28;20412;-91
2021/07/10 12:20:15;;;;;;;3.00;2.15;;;;;;;;;;5086252;28;20408;-91
2021/07/10 12:22:53;;;;;;;2.65;2.00;;;;;;;;;;5086309;28;20409;-91
2021/07/10 12:25:22;;;;;;;2.42;1.83;;;;;;;;;;5083854;28;20484;-90
2021/07/10 12:27:57;;;;;;;2.85;2.00;;;;;;;;;;5085323;28;20416;-91
2021/07/10 12:30:50;;;;;;;2.45;1.95;;;;;;;;;;5085856;28;20413;-90
2021/07/10 12:33:35;;;;;;;3.55;2.10;;;;;;;;;;5083117;28;20412;-92
2021/07/10 12:36:10;;;;;;;3.07;1.87;;;;;;;;;;5088004;28;20883;-90
2021/07/10 12:38:55;;;;;;;2.88;2.00;;;;;;;;;;5089243;28;20884;-90
2021/07/10 12:41:29;;;;;;;2.17;1.95;;;;;;;;;;5084057;28;20415;-92
2021/07/10 12:44:07;;;;;;;3.10;1.90;;;;;;;;;;5089427;28;20415;-91
2021/07/10 12:46:50;;;;;;;2.20;2.00;;;;;;;;;;5086692;28;20468;-91
2021/07/10 12:49:18;;;;;;;2.35;1.90;;;;;;;;;;5078801;28;20428;-92
2021/07/10 12:51:45;;;;;;;3.58;2.22;;;;;;;;;;5089350;28;20417;-92
2021/07/10 12:54:43;;;;;;;3.55;2.00;;;;;;;;;;5088885;28;20412;-92
2021/07/10 12:57:28;;;;;;;4.03;2.15;;;;;;;;;;5081645;28;20412;-93
2021/07/10 12:59:59;;;;;;;2.23;2.03;;;;;;;;;;5082253;28;20396;-90
2021/07/10 13:02:34;;;;;;;1.93;1.73;;;;;;;;;;5088048;28;20404;-90
2021/07/10 13:05:03;;;;;;;3.13;2.23;;;;;;;;;;5079213;28;20505;-92
2021/07/10 13:07:31;;;;;;;3.35;1.90;;;;;;;;;;5089154;28;20465;-93
2021/07/10 13:10:00;;;;;;;3.05;1.90;;;;;;;;;;5088546;28;20620;-91
2021/07/10 13:12:44;;;;;;;2.22;2.00;;;;;;;;;;5089059;28;20444;-92
2021/07/10 13:15:12;;;;;;;2.42;1.88;;;;;;;;;;5088566;28;20416;-92
2021/07/10 13:17:41;;;;;;;2.20;2.00;;;;;;;;;;5081132;28;20764;-91
2021/07/10 13:20:29;;;;;;;2.25;2.05;;;;;;;;;;5080455;28;20409;-92
2021/07/10 13:22:56;;;;;;;5.85;1.98;;;;;;;;;;5088337;28;20910;-92
2021/07/10 13:25:23;;;;;;;3.10;1.88;;;;;;;;;;5088872;28;20907;-90
2021/07/10 13:27:50;;;;;;;3.55;2.05;;;;;;;;;;5088799;28;20416;-90
2021/07/10 13:30:18;;;;;;;3.07;1.80;;;;;;;;;;5084405;28;20416;-90
2021/07/10 13:32:57;;;;;;;3.67;1.77;;;;;;;;;;5072877;28;20410;-91
2021/07/10 13:35:26;;;;;;;3.63;2.00;;;;;;;;;;5082604;28;20396;-92
2021/07/10 13:37:53;;;;;;;2.10;1.70;;;;;;;;;;5088519;28;20479;-92
2021/07/10 13:40:23;;;;;;;2.67;1.75;;;;;;;;;;5088407;28;20594;-91
2021/07/10 13:42:58;;;;;;;2.85;2.05;;;;;;;;;;5084138;28;20421;-91
2021/07/10 13:45:25;;;;;;;2.97;1.80;;;;;;;;;;5084614;28;20411;-90
2021/07/10 13:48:12;;;;;;;2.80;2.00;;;;;;;;;;5081221;28;20408;-91
2021/07/10 13:50:39;;;;;;;2.03;1.83;;;;;;;;;;5087868;28;21028;-92
2021/07/10 13:53:17;;;;;;;3.47;1.70;;;;;;;;;;5088021;28;20650;-89
2021/07/10 13:55:47;;;;;;;2.20;2.00;;;;;;;;;;5076077;28;20408;-92
2021/07/10 13:58:27;;;;;;;3.05;1.90;;;;;;;;;;5084066;28;20477;-91
2021/07/10 14:00:54;;;;;;;2.70;1.95;;;;;;;;;;5082740;28;20495;-90
2021/07/10 14:03:23;;;;;;;3.53;2.00;;;;;;;;;;5088031;28;20851;-91
2021/07/10 14:05:50;;;;;;;4.70;1.98;;;;;;;;;;5088045;28;20411;-90
2021/07/10 14:08:18;;;;;;;2.10;1.90;;;;;;;;;;5079521;28;20400;-91
2021/07/10 14:10:47;;;;;;;3.20;1.83;;;;;;;;;;5079741;28;20416;-91
2021/07/10 14:13:16;;;;;;;2.90;1.90;;;;;;;;;;5083840;28;20412;-92
2021/07/10 14:15:46;;;;;;;3.30;1.77;;;;;;;;;;5087912;28;20887;-91
2021/07/10 14:18:13;;;;;;;1.80;1.70;;;;;;;;;;5088033;28;20469;-91
2021/07/10 14:20:45;;;;;;;2.07;1.90;;;;;;;;;;5087636;28;20407;-92
2021/07/10 14:23:12;;;;;;;5.07;1.88;;;;;;;;;;5084402;28;20460;-90
2021/07/10 14:25:40;;;;;;;4.18;1.70;;;;;;;;;;5071101;28;20422;-91
2021/07/10 14:28:07;;;;;;;2.53;1.60;;;;;;;;;;5078146;28;20623;-91
2021/07/10 14:30:35;;;;;;;2.38;1.80;;;;;;;;;;5080836;28;20421;-92
2021/07/10 14:33:03;;;;;;;3.17;2.03;;;;;;;;;;5083164;28;20418;-91
2021/07/10 14:35:32;;;;;;;2.08;1.90;;;;;;;;;;5078344;28;20772;-90
2021/07/10 14:38:02;;;;;;;3.08;2.10;;;;;;;;;;5087896;28;20410;-90
2021/07/10 14:40:31;;;;;;;2.88;1.90;;;;;;;;;;5083709;28;20875;-91
2021/07/10 14:42:59;;;;;;;2.42;1.75;;;;;;;;;;5082769;28;20900;-91
2021/07/10 14:45:27;;;;;;;3.63;1.80;;;;;;;;;;5084032;28;20435;-92
2021/07/10 14:47:55;;;;;;;3.25;2.05;;;;;;;;;;5087332;28;20400;-92
2021/07/10 14:50:23;;;;;;;1.83;1.73;;;;;;;;;;5087238;28;20415;-92
2021/07/10 14:52:50;;;;;;;2.55;1.90;;;;;;;;;;5087332;28;20412;-90